createdAt,value
2023-02-06T00:00:53.446Z,97973.97
2023-02-06T00:03:20.660Z,97968.16
2023-02-06T00:05:59.436Z,97968.38
2023-02-06T00:08:27.954Z,97975.84
2023-02-06T00:10:54.978Z,97978.53
2023-02-06T00:13:22.197Z,97973.50
2023-02-06T00:15:49.222Z,97967.44
2023-02-06T00:18:16.249Z,97976.88
2023-02-06T00:20:43.183Z,97969.09
2023-02-06T00:23:10.335Z,97967.44
2023-02-06T00:25:37.572Z,97975.97
2023-02-06T00:28:05.120Z,97973.41
2023-02-06T00:30:32.138Z,97976.16
2023-02-06T00:32:59.336Z,97980.59
2023-02-06T00:35:26.288Z,97979.78
2023-02-06T00:37:53.389Z,97987.38
2023-02-06T00:40:20.352Z,97986.66
2023-02-06T00:42:47.414Z,97985.00
2023-02-06T00:45:14.332Z,97988.38
2023-02-06T00:47:41.362Z,97991.06
2023-02-06T00:50:09.910Z,97993.72
2023-02-06T00:52:36.851Z,97999.75
2023-02-06T00:55:05.410Z,97994.97
2023-02-06T00:57:32.352Z,98006.84
2023-02-06T00:59:59.334Z,98007.88
2023-02-06T01:02:27.239Z,97999.28
2023-02-06T01:04:54.220Z,98012.31
2023-02-06T01:07:21.192Z,98005.94
2023-02-06T01:09:48.308Z,98010.53
2023-02-06T01:12:15.195Z,98010.09
2023-02-06T01:14:42.155Z,98010.19
2023-02-06T01:17:11.805Z,98011.13
2023-02-06T01:19:39.655Z,98014.50
2023-02-06T01:22:07.588Z,98014.72
2023-02-06T01:24:34.692Z,98019.56
2023-02-06T01:27:01.786Z,98015.34
2023-02-06T01:29:28.722Z,98017.00
2023-02-06T01:31:56.171Z,98027.00
2023-02-06T01:34:23.165Z,98027.00
2023-02-06T01:36:50.126Z,98021.88
2023-02-06T01:39:17.245Z,98020.38
2023-02-06T01:41:44.312Z,98019.31
2023-02-06T01:44:19.382Z,98011.53
2023-02-06T01:46:52.160Z,98020.97
2023-02-06T01:49:39.782Z,98019.22
2023-02-06T01:52:25.587Z,98013.28
2023-02-06T01:55:00.920Z,98013.38
2023-02-06T01:57:29.074Z,98023.75
2023-02-06T01:59:59.388Z,98017.00
2023-02-06T02:02:28.989Z,98011.47
2023-02-06T02:04:58.113Z,98008.78
2023-02-06T02:07:33.336Z,98013.00
2023-02-06T02:10:00.496Z,98001.44
2023-02-06T02:12:28.124Z,98012.59
2023-02-06T02:14:56.727Z,98011.56
2023-02-06T02:18:06.336Z,98012.88
2023-02-06T02:21:07.429Z,98006.94
2023-02-06T02:23:43.948Z,98001.72
2023-02-06T02:26:31.438Z,97996.53
2023-02-06T02:29:16.510Z,97998.19
2023-02-06T02:31:55.469Z,97989.72
2023-02-06T02:34:31.553Z,97989.50
2023-02-06T02:37:00.262Z,97988.69
2023-02-06T02:39:42.221Z,97995.13
2023-02-06T02:42:23.338Z,97991.66
2023-02-06T02:45:36.850Z,97996.97
2023-02-06T02:48:04.049Z,97990.75
2023-02-06T02:50:32.837Z,97997.78
2023-02-06T02:53:02.308Z,97994.94
2023-02-06T02:55:29.492Z,97999.84
2023-02-06T02:58:05.416Z,97998.59
2023-02-06T03:00:37.465Z,98003.72
2023-02-06T03:03:06.605Z,98012.03
2023-02-06T03:05:38.229Z,98009.38
2023-02-06T03:08:11.414Z,98009.06
2023-02-06T03:10:44.074Z,97998.91
2023-02-06T03:13:26.668Z,97995.94
2023-02-06T03:16:05.550Z,98003.44
2023-02-06T03:18:46.533Z,97995.75
2023-02-06T03:21:19.865Z,98004.94
2023-02-06T03:23:50.454Z,98016.63
2023-02-06T03:26:21.156Z,98014.88
2023-02-06T03:28:52.981Z,98019.28
2023-02-06T03:31:33.384Z,98021.13
2023-02-06T03:34:11.090Z,98028.28
2023-02-06T03:36:38.174Z,98019.88
2023-02-06T03:39:05.097Z,98020.72
2023-02-06T03:41:36.191Z,98026.66
2023-02-06T03:44:06.815Z,98019.19
2023-02-06T03:46:37.160Z,98026.25
2023-02-06T03:49:07.778Z,98031.53
2023-02-06T03:51:45.177Z,98034.91
2023-02-06T03:54:16.986Z,98042.78
2023-02-06T03:56:48.855Z,98041.34
2023-02-06T03:59:15.928Z,98039.69
2023-02-06T04:01:45.918Z,98030.50
2023-02-06T04:04:16.641Z,98037.25
2023-02-06T04:06:43.749Z,98033.25
2023-02-06T04:09:10.869Z,98036.53
2023-02-06T04:11:37.899Z,98048.41
2023-02-06T04:14:04.956Z,98048.41
2023-02-06T04:16:31.934Z,98052.47
2023-02-06T04:18:59.045Z,98041.34
2023-02-06T04:21:26.065Z,98046.38
2023-02-06T04:23:53.053Z,98046.47
2023-02-06T04:26:20.023Z,98040.53
2023-02-06T04:28:46.970Z,98033.16
2023-02-06T04:31:14.028Z,98028.06
2023-02-06T04:33:41.168Z,98040.94
2023-02-06T04:36:08.358Z,98030.59
2023-02-06T04:38:35.396Z,98033.16
2023-02-06T04:41:06.635Z,98028.88
2023-02-06T04:43:34.414Z,98027.31
2023-02-06T04:46:01.338Z,98022.41
2023-02-06T04:48:28.509Z,98016.78
2023-02-06T04:50:55.434Z,98021.06
2023-02-06T04:53:22.410Z,98023.53
2023-02-06T04:55:49.425Z,98012.31
2023-02-06T04:58:16.410Z,98018.94
2023-02-06T05:00:43.382Z,98015.28
2023-02-06T05:03:10.341Z,98015.28
2023-02-06T05:05:37.451Z,98016.69
2023-02-06T05:08:04.391Z,98014.78
2023-02-06T05:10:31.405Z,98016.09
2023-02-06T05:12:58.344Z,98016.78
2023-02-06T05:15:25.297Z,98011.06
2023-02-06T05:17:52.355Z,98010.34
2023-02-06T05:20:20.082Z,98019.75
2023-02-06T05:22:47.075Z,98019.25
2023-02-06T05:25:14.074Z,98028.72
2023-02-06T05:27:41.110Z,98027.41
2023-02-06T05:30:08.591Z,98018.31
2023-02-06T05:32:35.588Z,98029.72
2023-02-06T05:35:02.584Z,98025.34
2023-02-06T05:37:29.600Z,98028.53
2023-02-06T05:39:58.517Z,98033.34
2023-02-06T05:42:26.602Z,98023.00
2023-02-06T05:44:53.441Z,98024.66
2023-02-06T05:47:20.456Z,98031.09
2023-02-06T05:49:48.441Z,98027.50
2023-02-06T05:52:16.434Z,98018.75
2023-02-06T05:54:43.233Z,98021.06
2023-02-06T05:57:10.796Z,98020.91
2023-02-06T05:59:37.947Z,98017.19
2023-02-06T06:02:05.166Z,98027.16
2023-02-06T06:04:32.203Z,98015.78
2023-02-06T06:06:59.556Z,98019.16
2023-02-06T06:09:26.577Z,98011.22
2023-02-06T06:11:53.708Z,98014.47
2023-02-06T06:14:20.602Z,98019.47
2023-02-06T06:16:47.537Z,98017.13
2023-02-06T06:19:14.541Z,98015.19
2023-02-06T06:21:41.447Z,98013.34
2023-02-06T06:24:08.359Z,98018.38
2023-02-06T06:26:35.560Z,98019.19
2023-02-06T06:29:03.990Z,98015.00
2023-02-06T06:31:31.054Z,98015.69
2023-02-06T06:33:57.992Z,98021.94
2023-02-06T06:36:24.968Z,98026.13
2023-02-06T06:38:51.887Z,98031.03
2023-02-06T06:41:19.008Z,98028.47
2023-02-06T06:43:45.907Z,98030.13
2023-02-06T06:46:12.818Z,98035.44
2023-02-06T06:48:40.566Z,98028.06
2023-02-06T06:51:07.750Z,98022.75
2023-02-06T06:53:34.808Z,98023.50
2023-02-06T06:56:10.574Z,98028.38
2023-02-06T06:58:37.613Z,98021.75
2023-02-06T07:01:05.244Z,98021.22
2023-02-06T07:03:32.297Z,98014.97
2023-02-06T07:05:59.348Z,98014.13
2023-02-06T07:08:27.065Z,98013.13
2023-02-06T07:10:54.076Z,98013.03
2023-02-06T07:13:21.130Z,98022.94
2023-02-06T07:15:48.062Z,98016.81
2023-02-06T07:18:15.013Z,98014.88
2023-02-06T07:20:42.018Z,98007.00
2023-02-06T07:23:08.958Z,98023.78
2023-02-06T07:25:36.129Z,98025.22
2023-02-06T07:28:03.754Z,98026.25
2023-02-06T07:30:30.682Z,98020.59
2023-02-06T07:32:57.738Z,98014.66
2023-02-06T07:35:24.728Z,98009.84
2023-02-06T07:37:54.561Z,98015.84
2023-02-06T07:40:21.649Z,98005.47
2023-02-06T07:42:48.636Z,98014.47
2023-02-06T07:45:22.057Z,98021.03
2023-02-06T07:47:49.012Z,98024.69
2023-02-06T07:50:16.107Z,98021.59
2023-02-06T07:52:43.017Z,98010.66
2023-02-06T07:55:10.458Z,98013.38
2023-02-06T07:57:37.499Z,98031.16
2023-02-06T08:00:05.517Z,98026.56
2023-02-06T08:02:39.100Z,98024.13
2023-02-06T08:05:06.462Z,98022.28
2023-02-06T08:07:33.399Z,98014.59
2023-02-06T08:10:00.281Z,98016.97
2023-02-06T08:12:30.091Z,98020.44
2023-02-06T08:14:57.058Z,98019.19
2023-02-06T08:17:24.237Z,98025.13
2023-02-06T08:19:51.187Z,98018.47
2023-02-06T08:22:18.148Z,98021.09
2023-02-06T08:24:45.487Z,98019.56
2023-02-06T08:27:12.442Z,98020.66
2023-02-06T08:29:42.816Z,98019.97
2023-02-06T08:32:10.725Z,98016.97
2023-02-06T08:34:39.667Z,98013.19
2023-02-06T08:37:06.695Z,98020.41
2023-02-06T08:39:33.710Z,98024.72
2023-02-06T08:42:00.637Z,98022.31
2023-02-06T08:44:28.050Z,98025.09
2023-02-06T08:47:08.902Z,98037.59
2023-02-06T08:49:37.002Z,98029.78
2023-02-06T08:52:03.927Z,98028.88
2023-02-06T08:54:32.234Z,98030.50
2023-02-06T08:57:01.255Z,98033.88
2023-02-06T08:59:31.341Z,98030.25
2023-02-06T09:01:58.302Z,98029.69
2023-02-06T09:04:25.371Z,98025.13
2023-02-06T09:06:52.405Z,98030.03
2023-02-06T09:09:19.897Z,98040.78
2023-02-06T09:11:46.972Z,98040.19
2023-02-06T09:14:16.511Z,98036.00
2023-02-06T09:16:43.790Z,98038.16
2023-02-06T09:19:11.620Z,98042.16
2023-02-06T09:21:38.876Z,98035.59
2023-02-06T09:24:08.578Z,98033.69
2023-02-06T09:26:44.816Z,98038.84
2023-02-06T09:29:17.357Z,98030.84
2023-02-06T09:31:44.641Z,98034.22
2023-02-06T09:34:12.782Z,98029.91
2023-02-06T09:36:39.959Z,98038.53
2023-02-06T09:39:08.979Z,98040.75
2023-02-06T09:41:46.820Z,98046.22
2023-02-06T09:44:28.318Z,98038.06
2023-02-06T09:47:02.678Z,98039.19
2023-02-06T09:49:39.361Z,98040.53
2023-02-06T09:52:15.587Z,98036.13
2023-02-06T09:54:51.450Z,98034.06
2023-02-06T09:57:26.052Z,98030.00
2023-02-06T10:00:01.584Z,98024.69
2023-02-06T10:02:28.552Z,98031.09
2023-02-06T10:05:13.359Z,98024.00
2023-02-06T10:08:17.011Z,98023.53
2023-02-06T10:11:03.731Z,98025.13
2023-02-06T10:13:33.525Z,98026.63
2023-02-06T10:16:20.239Z,98012.72
2023-02-06T10:18:54.182Z,98021.47
2023-02-06T10:21:42.758Z,98008.41
2023-02-06T10:24:28.603Z,98005.00
2023-02-06T10:26:58.491Z,98002.03
2023-02-06T10:29:31.942Z,97998.22
2023-02-06T10:32:04.465Z,98000.41
2023-02-06T10:34:43.604Z,97990.38
2023-02-06T10:37:22.763Z,97990.88
2023-02-06T10:40:13.426Z,97983.03
2023-02-06T10:43:03.375Z,97971.63
2023-02-06T10:46:26.147Z,97973.66
2023-02-06T10:49:14.086Z,97965.50
2023-02-06T10:51:47.641Z,97964.97
2023-02-06T10:54:34.975Z,97959.63
2023-02-06T10:57:03.250Z,97950.63
2023-02-06T10:59:38.044Z,97949.47
2023-02-06T11:02:08.081Z,97947.84
2023-02-06T11:04:39.458Z,97944.28
2023-02-06T11:07:14.761Z,97945.91
2023-02-06T11:09:41.892Z,97940.13
2023-02-06T11:12:35.367Z,97939.78
2023-02-06T11:15:09.381Z,97930.63
2023-02-06T11:17:36.643Z,97931.78
2023-02-06T11:20:26.778Z,97923.28
2023-02-06T11:22:54.268Z,97925.00
2023-02-06T11:25:34.089Z,97922.63
2023-02-06T11:28:01.724Z,97921.19
2023-02-06T11:30:37.841Z,97913.50
2023-02-06T11:33:46.981Z,97915.25
2023-02-06T11:36:27.514Z,97911.78
2023-02-06T11:39:25.760Z,97906.00
2023-02-06T11:42:13.732Z,97901.84
2023-02-06T11:44:42.078Z,97900.69
2023-02-06T11:47:37.178Z,97900.97
2023-02-06T11:50:13.514Z,97896.44
2023-02-06T11:52:47.045Z,97895.38
2023-02-06T11:55:24.722Z,97895.44
2023-02-06T11:58:14.405Z,97893.03
2023-02-06T12:13:34.243Z,97876.75
2023-02-06T12:16:04.152Z,97873.28
2023-02-06T12:18:44.065Z,97871.22
2023-02-06T12:21:19.962Z,97876.06
2023-02-06T12:23:53.168Z,97877.13
2023-02-06T12:26:24.090Z,97876.47
2023-02-06T12:29:10.326Z,97877.63
2023-02-06T12:31:54.101Z,97881.09
2023-02-06T12:34:25.945Z,97879.84
2023-02-06T12:37:00.742Z,97871.34
2023-02-06T12:39:32.603Z,97871.72
2023-02-06T12:42:07.113Z,97871.50
2023-02-06T12:45:05.165Z,97864.56
2023-02-06T12:48:12.351Z,97866.91
2023-02-06T12:50:46.883Z,97864.19
2023-02-06T12:53:26.614Z,97861.56
2023-02-06T12:56:02.851Z,97866.38
2023-02-06T12:58:52.520Z,97864.41
2023-02-06T13:01:30.011Z,97850.50
2023-02-06T13:04:06.224Z,97852.47
2023-02-06T13:06:56.967Z,97854.06
2023-02-06T13:09:58.205Z,97853.44
2023-02-06T13:12:28.446Z,97852.09
2023-02-06T13:15:02.166Z,97851.66
2023-02-06T13:17:42.914Z,97841.06
2023-02-06T13:20:15.088Z,97849.97
2023-02-06T13:22:51.201Z,97849.53
2023-02-06T13:25:30.570Z,97854.88
2023-02-06T13:27:58.742Z,97857.75
2023-02-06T13:30:31.805Z,97844.94
2023-02-06T13:33:08.809Z,97842.53
2023-02-06T13:35:36.180Z,97848.66
2023-02-06T13:38:24.860Z,97831.31
2023-02-06T13:41:16.662Z,97842.16
2023-02-06T13:43:51.238Z,97837.84
2023-02-06T13:46:22.546Z,97835.91
2023-02-06T13:49:09.331Z,97840.31
2023-02-06T13:51:58.666Z,97841.44
2023-02-06T13:54:43.740Z,97844.69
2023-02-06T13:57:39.523Z,97841.59
2023-02-06T14:00:23.260Z,97839.53
2023-02-06T14:02:54.600Z,97837.84
2023-02-06T14:05:26.875Z,97836.94
2023-02-06T14:08:15.880Z,97840.69
2023-02-06T14:11:04.585Z,97847.97
2023-02-06T14:13:31.617Z,97850.63
2023-02-06T14:16:29.575Z,97854.22
2023-02-06T14:19:04.669Z,97851.78
2023-02-06T14:21:51.733Z,97854.66
2023-02-06T14:24:36.703Z,97856.44
2023-02-06T14:27:42.522Z,97858.50
2023-02-06T14:30:24.452Z,97858.38
2023-02-06T14:33:10.192Z,97851.47
2023-02-06T14:35:55.655Z,97855.00
2023-02-06T14:38:54.472Z,97855.41
2023-02-06T14:41:21.921Z,97847.81
2023-02-06T14:43:51.324Z,97858.41
2023-02-06T14:46:20.131Z,97861.38
2023-02-06T14:48:53.852Z,97854.47
2023-02-06T14:51:26.703Z,97853.78
2023-02-06T14:54:01.815Z,97852.69
2023-02-06T14:56:37.636Z,97852.19
2023-02-06T14:59:13.820Z,97851.50
2023-02-06T15:01:43.277Z,97851.34
2023-02-06T15:04:13.906Z,97843.75
2023-02-06T15:06:43.849Z,97844.44
2023-02-06T15:09:30.307Z,97839.41
2023-02-06T15:12:00.569Z,97846.88
2023-02-06T15:14:33.527Z,97850.28
2023-02-06T15:17:02.958Z,97850.41
2023-02-06T15:19:35.754Z,97849.19
2023-02-06T15:22:07.120Z,97853.66
2023-02-06T15:24:40.256Z,97860.84
2023-02-06T15:27:30.723Z,97861.50
2023-02-06T15:29:59.087Z,97860.84
2023-02-06T15:32:38.701Z,97866.13
2023-02-06T15:35:20.992Z,97878.19
2023-02-06T15:37:48.650Z,97869.50
2023-02-06T15:40:31.193Z,97881.16
2023-02-06T15:42:59.231Z,97880.59
2023-02-06T15:45:34.545Z,97874.75
2023-02-06T15:48:13.678Z,97876.66
2023-02-06T15:50:40.931Z,97874.75
2023-02-06T15:53:18.748Z,97878.94
2023-02-06T15:55:56.675Z,97873.50
2023-02-06T15:58:25.091Z,97880.13
2023-02-06T16:00:57.312Z,97884.59
2023-02-06T16:03:27.329Z,97888.09
2023-02-06T16:05:56.652Z,97886.63
2023-02-06T16:08:30.283Z,97889.44
2023-02-06T16:11:05.359Z,97893.13
2023-02-06T16:13:33.519Z,97901.91
2023-02-06T16:16:09.294Z,97900.66
2023-02-06T16:18:38.632Z,97907.94
2023-02-06T16:21:17.848Z,97907.28
2023-02-06T16:23:49.294Z,97910.22
2023-02-06T16:26:25.379Z,97908.03
2023-02-06T16:29:00.509Z,97917.75
2023-02-06T16:31:30.004Z,97920.72
2023-02-06T16:34:03.429Z,97925.28
2023-02-06T16:36:32.712Z,97925.00
2023-02-06T16:39:04.517Z,97930.53
2023-02-06T16:41:35.024Z,97933.59
2023-02-06T16:44:03.410Z,97944.13
2023-02-06T16:46:30.838Z,97946.16
2023-02-06T16:48:59.214Z,97947.47
2023-02-06T16:51:29.811Z,97953.78
2023-02-06T16:53:58.197Z,97961.06
2023-02-06T16:56:25.334Z,97963.31
2023-02-06T16:58:52.474Z,97964.59
2023-02-06T17:01:26.707Z,97970.25
2023-02-06T17:03:54.359Z,97975.75
2023-02-06T17:06:26.655Z,97980.56
2023-02-06T17:08:58.002Z,97978.94
2023-02-06T17:11:25.243Z,97976.03
2023-02-06T17:13:52.157Z,97978.16
2023-02-06T17:16:21.692Z,97974.19
2023-02-06T17:18:49.507Z,97984.03
2023-02-06T17:21:19.724Z,97991.94
2023-02-06T17:23:49.210Z,97992.44
2023-02-06T17:26:21.812Z,97998.75
2023-02-06T17:28:49.675Z,98000.84
2023-02-06T17:31:17.547Z,97998.53
2023-02-06T17:33:44.663Z,97998.75
2023-02-06T17:36:29.641Z,98001.69
2023-02-06T17:38:59.146Z,98012.19
2023-02-06T17:41:27.617Z,98015.13
2023-02-06T17:43:54.960Z,98018.00
2023-02-06T17:46:22.755Z,98023.50
2023-02-06T17:48:49.753Z,98031.22
2023-02-06T17:51:16.827Z,98029.00
2023-02-06T17:53:43.884Z,98040.53
2023-02-06T17:56:13.237Z,98032.56
2023-02-06T17:58:41.531Z,98037.03
2023-02-06T18:01:20.034Z,98041.34
2023-02-06T18:03:48.127Z,98039.00
2023-02-06T18:06:15.593Z,98035.84
2023-02-06T18:08:43.462Z,98037.81
2023-02-06T18:11:16.580Z,98037.94
2023-02-06T18:13:43.998Z,98035.59
2023-02-06T18:16:21.029Z,98039.09
2023-02-06T18:18:48.749Z,98045.16
2023-02-06T18:21:16.698Z,98041.19
2023-02-06T18:23:43.737Z,98042.22
2023-02-06T18:26:10.969Z,98044.44
2023-02-06T18:28:39.779Z,98055.81
2023-02-06T18:31:21.920Z,98050.69
2023-02-06T18:33:49.086Z,98053.59
2023-02-06T18:36:16.055Z,98050.56
2023-02-06T18:38:43.044Z,98056.72
2023-02-06T18:41:29.964Z,98056.84
2023-02-06T18:44:00.479Z,98060.09
2023-02-06T18:46:27.557Z,98067.06
2023-02-06T18:48:55.212Z,98060.28
2023-02-06T18:51:22.272Z,98062.97
2023-02-06T18:53:49.744Z,98074.59
2023-02-06T18:56:16.905Z,98072.13
2023-02-06T18:58:43.913Z,98073.28
2023-02-06T19:01:17.511Z,98075.13
2023-02-06T19:03:45.363Z,98075.84
2023-02-06T19:06:18.515Z,98080.97
2023-02-06T19:08:46.791Z,98090.50
2023-02-06T19:11:14.168Z,98090.63
2023-02-06T19:13:41.529Z,98092.38
2023-02-06T19:16:12.727Z,98091.78
2023-02-06T19:18:42.245Z,98086.84
2023-02-06T19:21:12.147Z,98093.13
2023-02-06T19:23:40.091Z,98096.41
2023-02-06T19:26:09.149Z,98092.41
2023-02-06T19:28:38.460Z,98085.66
2023-02-06T19:31:07.050Z,98081.56
2023-02-06T19:33:36.305Z,98074.91
2023-02-06T19:36:23.044Z,98078.63
2023-02-06T19:38:53.709Z,98098.31
2023-02-06T19:41:24.022Z,98099.31
2023-02-06T19:43:52.773Z,98100.97
2023-02-06T19:46:23.197Z,98093.72
2023-02-06T19:48:51.244Z,98100.09
2023-02-06T19:51:25.162Z,98096.28
2023-02-06T19:53:54.055Z,98110.13
2023-02-06T19:56:32.934Z,98114.53
2023-02-06T19:59:01.872Z,98114.03
2023-02-06T20:01:30.719Z,98121.09
2023-02-06T20:03:59.591Z,98128.19
2023-02-06T20:06:29.642Z,98119.88
2023-02-06T20:08:57.411Z,98124.19
2023-02-06T20:11:24.466Z,98124.41
2023-02-06T20:13:55.740Z,98128.22
2023-02-06T20:16:25.860Z,98133.53
2023-02-06T20:18:53.926Z,98126.75
2023-02-06T20:21:29.649Z,98131.97
2023-02-06T20:24:01.841Z,98133.03
2023-02-06T20:26:33.786Z,98132.38
2023-02-06T20:29:01.190Z,98125.63
2023-02-06T20:31:28.237Z,98123.38
2023-02-06T20:33:55.846Z,98130.25
2023-02-06T20:36:25.186Z,98138.75
2023-02-06T20:38:58.848Z,98130.44
2023-02-06T20:41:29.705Z,98138.09
2023-02-06T20:43:57.968Z,98131.47
2023-02-06T20:46:26.267Z,98141.81
2023-02-06T20:48:56.929Z,98135.03
2023-02-06T20:51:24.615Z,98135.22
2023-02-06T20:53:52.104Z,98130.25
2023-02-06T20:56:20.288Z,98143.03
2023-02-06T20:58:47.633Z,98141.31
2023-02-06T21:01:20.453Z,98137.91
2023-02-06T21:03:47.703Z,98132.06
2023-02-06T21:06:15.733Z,98144.03
2023-02-06T21:08:43.128Z,98142.31
2023-02-06T21:11:10.204Z,98148.25
2023-02-06T21:13:40.002Z,98152.53
2023-02-06T21:16:07.403Z,98145.69
2023-02-06T21:18:34.562Z,98155.09
2023-02-06T21:21:13.038Z,98156.13
2023-02-06T21:23:41.424Z,98158.16
2023-02-06T21:26:09.825Z,98160.00
2023-02-06T21:28:37.936Z,98164.00
2023-02-06T21:31:06.543Z,98162.38
2023-02-06T21:33:34.635Z,98159.81
2023-02-06T21:36:02.303Z,98152.31
2023-02-06T21:38:29.768Z,98152.81
2023-02-06T21:40:58.597Z,98152.31
2023-02-06T21:43:25.508Z,98156.78
2023-02-06T21:45:52.437Z,98156.09
2023-02-06T21:48:19.410Z,98158.81
2023-02-06T21:50:46.328Z,98153.94
2023-02-06T21:53:13.479Z,98156.34
2023-02-06T21:55:44.868Z,98153.81
2023-02-06T21:58:16.837Z,98158.91
2023-02-06T22:00:45.484Z,98157.41
2023-02-06T22:03:13.289Z,98155.75
2023-02-06T22:05:40.695Z,98157.41
2023-02-06T22:08:07.623Z,98148.16
2023-02-06T22:10:38.237Z,98164.09
2023-02-06T22:13:06.122Z,98162.28
2023-02-06T22:15:34.062Z,98152.03
2023-02-06T22:18:01.130Z,98168.13
2023-02-06T22:20:28.433Z,98165.66
2023-02-06T22:22:55.878Z,98166.97
2023-02-06T22:25:23.008Z,98168.78
2023-02-06T22:27:50.104Z,98174.09
2023-02-06T22:30:17.215Z,98177.56
2023-02-06T22:32:44.215Z,98178.56
2023-02-06T22:35:11.236Z,98180.41
2023-02-06T22:37:38.344Z,98189.81
2023-02-06T22:40:08.168Z,98191.00
2023-02-06T22:42:36.393Z,98194.47
2023-02-06T22:45:03.503Z,98187.75
2023-02-06T22:47:30.552Z,98190.41
2023-02-06T22:49:57.483Z,98190.56
2023-02-06T22:52:45.107Z,98196.59
2023-02-06T22:55:12.822Z,98201.81
2023-02-06T22:57:39.772Z,98206.47
2023-02-06T23:00:09.604Z,98215.25
2023-02-06T23:02:38.462Z,98206.84
2023-02-06T23:05:05.825Z,98195.91
2023-02-06T23:07:32.795Z,98192.00
2023-02-06T23:09:59.806Z,98200.69
2023-02-06T23:12:26.826Z,98203.25
2023-02-06T23:14:54.026Z,98209.25
2023-02-06T23:17:20.954Z,98199.13
2023-02-06T23:19:48.003Z,98211.91
2023-02-06T23:22:14.923Z,98206.06
2023-02-06T23:24:41.863Z,98210.34
2023-02-06T23:27:09.090Z,98215.38
2023-02-06T23:29:35.983Z,98210.25
2023-02-06T23:32:02.928Z,98201.75
2023-02-06T23:34:29.878Z,98203.41
2023-02-06T23:36:56.800Z,98201.75
2023-02-06T23:39:23.816Z,98200.03
2023-02-06T23:41:50.809Z,98208.59
2023-02-06T23:44:18.074Z,98207.06
2023-02-06T23:46:45.027Z,98208.91
2023-02-06T23:49:12.174Z,98217.56
2023-02-06T23:51:39.266Z,98205.06
2023-02-06T23:54:08.186Z,98203.50
2023-02-06T23:56:36.057Z,98207.78
2023-02-06T23:59:04.267Z,98207.19
